This is the latest recevied weather packets stored in our database for station/object OK1TOM-6. If no packets are shown the sender has not sent any weather packets the latest 10 day(s).
| Time | Temp. | Humidity | Pressure | Rain* | Wind** | Luminosity | Snow |
|---|---|---|---|---|---|---|---|
| 1777851953 | 12.22° C | 68% | 1016.5 hPa | 0 mm | - | - | - |
| 1777851350 | 12.22° C | 67% | 1016.4 hPa | 0 mm | - | - | - |
| 1777850747 | 12.22° C | 66% | 1016.3 hPa | 0 mm | - | - | - |
| 1777850143 | 12.78° C | 65% | 1016.3 hPa | 0 mm | - | - | - |
| 1777849540 | 12.22° C | 67% | 1016.2 hPa | 0 mm | - | - | - |
| 1777848936 | 11.67° C | 68% | 1016.2 hPa | 0 mm | - | - | - |
| 1777848333 | 12.22° C | 67% | 1016.2 hPa | 0 mm | - | - | - |
| 1777847729 | 12.22° C | 66% | 1016.2 hPa | 0 mm | - | - | - |
| 1777847126 | 12.22° C | 66% | 1016 hPa | 0 mm | - | - | - |
| 1777846522 | 12.78° C | 64% | 1016 hPa | 0 mm | - | - | - |
| 1777845919 | 12.78° C | 62% | 1015.9 hPa | 0 mm | - | - | - |
| 1777845316 | 12.78° C | 62% | 1015.9 hPa | 0 mm | - | - | - |
| 1777844772 | 12.22° C | 63% | 1016 hPa | 0 mm | - | - | - |
| 1777844169 | 12.78° C | 61% | 1015.8 hPa | 0 mm | - | - | - |
| 1777843565 | 13.89° C | 56% | 1015.8 hPa | 0 mm | - | - | - |
| 1777842962 | 14.44° C | 52% | 1015.7 hPa | 0 mm | - | - | - |
| 1777842359 | 12.78° C | 58% | 1015.6 hPa | 0 mm | - | - | - |
| 1777841755 | 12.78° C | 58% | 1015.7 hPa | 0 mm | - | - | - |
| 1777841152 | 12.78° C | 58% | 1015.5 hPa | 0 mm | - | - | - |
| 1777840549 | 12.78° C | 58% | 1015.7 hPa | 0 mm | - | - | - |
| 1777839945 | 13.33° C | 57% | 1015.7 hPa | 0 mm | - | - | - |
| 1777839342 | 13.33° C | 57% | 1015.7 hPa | 0 mm | - | - | - |
| 1777838738 | 13.89° C | 56% | 1015.8 hPa | 0 mm | - | - | - |
| 1777838136 | 13.33° C | 58% | 1015.8 hPa | 0 mm | - | - | - |
| 1777837532 | 13.33° C | 60% | 1015.8 hPa | 0 mm | - | - | - |
* Rain latest hour (hover to see other rain measurements)
** Current wind speed in m/s (hover to see current wind gust speed)